Time;durP1;ratioP1;P1;durP2;ratioP2;P2;SDS_P1;SDS_P2;PMS_P1;PMS_P2;Temp;Humidity;BMP_temperature;BMP_pressure;BME280_temperature;BME280_humidity;BME280_pressure;Samples;Min_cycle;Max_cycle;Signal;HPM_P1;HPM_P2
2023/02/05 00:01:03;;;;;;;9.60;1.20;;;;;;;-2.49;82.63;102288.71;106484;1275;25506;-57
2023/02/05 00:03:44;;;;;;;11.20;1.80;;;;;;;-2.48;82.64;102284.62;106524;1276;23072;-57
2023/02/05 00:06:15;;;;;;;11.30;1.90;;;;;;;-2.46;82.94;102279.91;106505;1268;22666;-56
2023/02/05 00:08:46;;;;;;;12.70;2.20;;;;;;;-2.44;83.00;102279.81;106642;1261;24225;-57
2023/02/05 00:11:17;;;;;;;8.30;1.20;;;;;;;-2.40;82.98;102281.25;106508;1276;24359;-58
2023/02/05 00:13:48;;;;;;;14.50;2.70;;;;;;;-2.38;82.94;102285.94;106463;1273;22609;-57
2023/02/05 00:16:21;;;;;;;10.40;1.80;;;;;;;-2.35;82.92;102287.99;106472;1261;22597;-57
2023/02/05 00:18:52;;;;;;;11.20;2.00;;;;;;;-2.33;82.98;102284.63;106503;1275;22561;-59
2023/02/05 00:21:24;;;;;;;13.00;2.10;;;;;;;-2.30;82.88;102285.33;106344;1268;217434;-55
2023/02/05 00:23:55;;;;;;;10.30;1.70;;;;;;;-2.28;82.82;102288.52;106502;1268;24269;-58
2023/02/05 00:26:26;;;;;;;12.70;2.00;;;;;;;-2.27;82.79;102291.77;106504;1262;22676;-58
2023/02/05 00:28:57;;;;;;;8.50;1.80;;;;;;;-2.25;82.77;102296.23;106471;1262;22573;-57
2023/02/05 00:31:28;;;;;;;13.40;2.10;;;;;;;-2.23;82.78;102286.41;106489;1268;24212;-58
2023/02/05 00:33:59;;;;;;;13.70;2.00;;;;;;;-2.22;82.79;102283.95;106507;1274;24214;-58
2023/02/05 00:36:30;;;;;;;12.80;2.00;;;;;;;-2.20;82.92;102281.90;106487;1264;23022;-56
2023/02/05 00:39:00;;;;;;;10.70;1.50;;;;;;;-2.20;82.93;102282.86;106446;1275;22557;-58
2023/02/05 00:41:32;;;;;;;12.90;1.80;;;;;;;-2.19;82.84;102282.24;106508;1274;24401;-55
2023/02/05 00:44:02;;;;;;;14.10;1.70;;;;;;;-2.21;82.91;102278.89;106523;1273;25521;-58
2023/02/05 00:46:33;;;;;;;11.10;1.60;;;;;;;-2.23;82.95;102276.95;106493;1267;22570;-56
2023/02/05 00:49:04;;;;;;;13.30;1.70;;;;;;;-2.25;82.84;102279.94;106618;1274;22583;-58
2023/02/05 00:51:35;;;;;;;10.70;2.00;;;;;;;-2.27;82.98;102281.73;106526;1274;24007;-56
2023/02/05 00:54:06;;;;;;;13.90;1.80;;;;;;;-2.30;83.03;102284.95;106581;1252;24225;-59
2023/02/05 00:56:37;;;;;;;14.20;1.40;;;;;;;-2.32;83.03;102280.52;106473;1274;22545;-59
2023/02/05 00:59:08;;;;;;;14.00;1.80;;;;;;;-2.34;83.10;102286.70;106505;1261;24255;-56
2023/02/05 01:01:39;;;;;;;13.30;1.80;;;;;;;-2.36;83.08;102292.90;106498;1261;23015;-59
2023/02/05 01:04:10;;;;;;;12.30;2.20;;;;;;;-2.39;83.31;102298.11;106507;1261;25503;-57
2023/02/05 01:06:40;;;;;;;11.50;1.60;;;;;;;-2.39;83.49;102294.96;106554;1274;22553;-57
2023/02/05 01:09:11;;;;;;;13.20;1.90;;;;;;;-2.39;83.81;102298.02;106501;1274;22652;-58
2023/02/05 01:11:42;;;;;;;13.60;2.10;;;;;;;-2.37;83.89;102300.03;106419;1274;26797;-56
2023/02/05 01:14:13;;;;;;;14.90;2.60;;;;;;;-2.35;83.88;102298.45;106499;1259;25522;-58
2023/02/05 01:16:44;;;;;;;12.50;2.50;;;;;;;-2.33;83.87;102300.48;106522;1274;24236;-56
2023/02/05 01:19:15;;;;;;;15.40;2.90;;;;;;;-2.30;84.09;102295.71;106513;1268;24381;-58
2023/02/05 01:21:46;;;;;;;12.50;2.10;;;;;;;-2.28;84.21;102300.56;106538;1274;22719;-57
2023/02/05 01:24:17;;;;;;;14.20;2.50;;;;;;;-2.27;84.24;102294.66;106522;1274;24227;-58
2023/02/05 01:26:48;;;;;;;12.70;2.30;;;;;;;-2.23;84.45;102295.79;106501;1268;22603;-59
2023/02/05 01:29:19;;;;;;;12.50;2.00;;;;;;;-2.23;84.61;102296.41;106577;1268;24398;-57
2023/02/05 01:31:50;;;;;;;14.20;2.50;;;;;;;-2.23;84.52;102294.33;106481;1275;24424;-59
2023/02/05 01:34:21;;;;;;;12.60;1.70;;;;;;;-2.22;84.45;102294.03;106511;1268;25507;-59
2023/02/05 01:36:53;;;;;;;12.80;2.60;;;;;;;-2.21;84.40;102294.20;106430;1275;22610;-58
2023/02/05 01:39:24;;;;;;;16.60;1.90;;;;;;;-2.21;84.51;102290.23;106532;1276;23273;-59
2023/02/05 01:41:55;;;;;;;9.20;2.00;;;;;;;-2.21;84.48;102294.38;106466;1268;26935;-58
2023/02/05 01:44:27;;;;;;;15.70;2.80;;;;;;;-2.23;84.49;102297.06;106602;1274;25618;-58
2023/02/05 01:46:58;;;;;;;13.50;2.30;;;;;;;-2.23;84.61;102299.48;106441;1264;25561;-57
2023/02/05 01:49:33;;;;;;;11.00;1.80;;;;;;;-2.24;84.63;102298.69;106452;1268;22534;-59
2023/02/05 01:52:09;;;;;;;12.20;2.00;;;;;;;-2.22;84.77;102298.11;106529;1274;22606;-56
2023/02/05 01:54:44;;;;;;;17.90;2.60;;;;;;;-2.19;84.69;102298.50;106603;1276;22563;-58
2023/02/05 01:57:20;;;;;;;12.90;1.90;;;;;;;-2.17;84.68;102298.50;106520;1266;22666;-58
2023/02/05 01:59:52;;;;;;;14.00;2.50;;;;;;;-2.16;84.84;102299.88;106646;1272;22556;-58
2023/02/05 02:02:23;;;;;;;11.70;2.00;;;;;;;-2.16;84.71;102291.34;106512;1268;28049;-57
2023/02/05 02:05:00;;;;;;;9.60;1.80;;;;;;;-2.16;84.89;102290.02;106531;1261;24271;-58
2023/02/05 02:07:32;;;;;;;14.10;2.00;;;;;;;-2.16;84.78;102289.63;106490;1268;24280;-56
2023/02/05 02:10:04;;;;;;;12.30;2.40;;;;;;;-2.15;84.83;102296.38;106610;1276;22579;-59
2023/02/05 02:12:39;;;;;;;11.90;1.80;;;;;;;-2.14;84.83;102296.81;106683;1276;22750;-56
2023/02/05 02:15:16;;;;;;;15.80;2.80;;;;;;;-2.13;84.99;102297.77;106529;1275;27007;-58
2023/02/05 02:17:50;;;;;;;15.70;2.00;;;;;;;-2.11;84.96;102302.52;106710;1274;22663;-58
2023/02/05 02:20:28;;;;;;;11.00;2.10;;;;;;;-2.10;85.05;102300.13;106549;1276;22735;-57
2023/02/05 02:23:13;;;;;;;14.50;2.10;;;;;;;-2.08;84.94;102303.87;106495;1260;24402;-56
2023/02/05 02:26:11;;;;;;;12.00;2.60;;;;;;;-2.05;85.00;102303.71;106605;1274;25478;-58
2023/02/05 02:28:46;;;;;;;9.60;1.80;;;;;;;-2.04;85.04;102303.75;106520;1274;22606;-57
2023/02/05 02:31:27;;;;;;;11.30;2.30;;;;;;;-2.03;84.98;102305.58;106551;1262;26738;-58
2023/02/05 02:34:02;;;;;;;10.90;1.80;;;;;;;-2.01;84.95;102301.20;106668;1270;22559;-55
2023/02/05 02:36:39;;;;;;;12.80;1.90;;;;;;;-1.99;84.90;102300.08;106857;1262;24507;-58
2023/02/05 02:39:14;;;;;;;12.10;2.10;;;;;;;-1.98;84.83;102300.52;106586;1268;25647;-58
2023/02/05 02:41:52;;;;;;;13.20;2.20;;;;;;;-1.98;84.93;102300.73;106580;1275;22562;-58
2023/02/05 02:44:29;;;;;;;10.70;1.80;;;;;;;-2.00;84.89;102296.77;106599;1267;25565;-58
2023/02/05 02:47:05;;;;;;;13.90;2.20;;;;;;;-2.03;84.76;102296.52;106753;1271;25495;-57
2023/02/05 02:49:40;;;;;;;10.50;2.10;;;;;;;-2.04;84.76;102298.50;106463;1257;24255;-58
2023/02/05 02:52:15;;;;;;;11.70;2.10;;;;;;;-2.04;84.90;102304.30;106570;1260;22575;-58
2023/02/05 02:54:50;;;;;;;9.60;2.20;;;;;;;-2.05;84.83;102301.68;106624;1274;22531;-58
2023/02/05 02:57:25;;;;;;;10.40;2.00;;;;;;;-2.05;84.98;102299.42;106551;1275;24220;-58
2023/02/05 03:00:00;;;;;;;12.70;2.20;;;;;;;-2.05;85.01;102297.85;106458;1270;25542;-57
2023/02/05 03:02:36;;;;;;;13.40;2.40;;;;;;;-2.05;85.09;102299.66;106900;1268;23337;-57
2023/02/05 03:05:11;;;;;;;13.30;2.20;;;;;;;-2.03;85.10;102301.51;106647;1274;22687;-56
2023/02/05 03:07:47;;;;;;;12.60;2.80;;;;;;;-2.03;84.99;102300.20;106509;1275;24638;-57
2023/02/05 03:10:24;;;;;;;18.90;3.10;;;;;;;-2.04;85.01;102302.89;106618;1275;25504;-57
2023/02/05 03:12:56;;;;;;;15.20;2.70;;;;;;;-2.08;84.93;102302.13;106501;1273;25488;-57
2023/02/05 03:15:27;;;;;;;13.00;2.20;;;;;;;-2.09;85.16;102301.80;106575;1260;22618;-59
2023/02/05 03:17:58;;;;;;;12.20;2.20;;;;;;;-2.10;85.14;102300.37;106488;1275;22571;-58
2023/02/05 03:20:32;;;;;;;17.60;2.70;;;;;;;-2.12;85.22;102296.70;106515;1258;22632;-58
2023/02/05 03:23:03;;;;;;;13.60;3.10;;;;;;;-2.13;85.24;102296.75;106608;1268;25482;-56
2023/02/05 03:25:34;;;;;;;14.30;3.20;;;;;;;-2.14;85.27;102297.98;106483;1275;22553;-58
2023/02/05 03:28:06;;;;;;;13.40;2.50;;;;;;;-2.14;85.40;102301.16;106489;1276;24268;-58
2023/02/05 03:30:49;;;;;;;13.60;2.40;;;;;;;-2.15;85.36;102303.11;106538;1276;22674;-58
2023/02/05 03:33:38;;;;;;;14.70;2.60;;;;;;;-2.15;85.37;102309.59;106696;1268;25496;-55
2023/02/05 03:36:20;;;;;;;14.70;2.70;;;;;;;-2.14;85.25;102306.34;106541;1276;25477;-55
2023/02/05 03:39:07;;;;;;;18.40;2.50;;;;;;;-2.13;85.36;102306.75;106462;1268;24732;-58
2023/02/05 03:41:56;;;;;;;14.10;2.50;;;;;;;-2.14;85.37;102306.35;106475;1272;24252;-58
2023/02/05 03:44:46;;;;;;;15.20;3.80;;;;;;;-2.17;85.35;102309.13;106491;1274;22652;-58
2023/02/05 03:47:28;;;;;;;16.30;3.00;;;;;;;-2.20;85.35;102313.56;106526;1276;22549;-58
2023/02/05 03:50:07;;;;;;;9.70;1.90;;;;;;;-2.23;85.40;102313.38;106584;1269;22538;-58
2023/02/05 03:52:45;;;;;;;19.40;3.00;;;;;;;-2.26;85.37;102314.52;106607;1265;22808;-57
2023/02/05 03:55:22;;;;;;;14.40;2.60;;;;;;;-2.29;85.41;102314.21;106523;1259;22624;-58
2023/02/05 03:57:59;;;;;;;16.70;3.30;;;;;;;-2.32;85.31;102313.40;106581;1276;24246;-58
2023/02/05 04:00:32;;;;;;;17.10;2.90;;;;;;;-2.34;85.26;102313.89;106780;1263;22577;-57
2023/02/05 04:03:03;;;;;;;15.90;2.50;;;;;;;-2.35;85.21;102313.10;106557;1253;22951;-58
2023/02/05 04:05:34;;;;;;;17.00;2.90;;;;;;;-2.37;85.27;102316.05;106524;1275;22565;-57
2023/02/05 04:08:06;;;;;;;9.80;2.10;;;;;;;-2.40;85.11;102312.99;106488;1276;25369;-58
2023/02/05 04:10:37;;;;;;;15.80;3.20;;;;;;;-2.47;85.05;102310.73;106543;1276;22721;-59
2023/02/05 04:13:07;;;;;;;14.10;2.40;;;;;;;-2.54;84.93;102305.67;106498;1275;25765;-57
2023/02/05 04:15:38;;;;;;;14.50;3.20;;;;;;;-2.58;84.97;102303.58;106475;1276;27087;-56
2023/02/05 04:18:09;;;;;;;13.80;4.10;;;;;;;-2.62;84.90;102309.46;106554;1276;22653;-58
2023/02/05 04:20:40;;;;;;;13.50;3.20;;;;;;;-2.65;84.96;102316.86;106506;1276;24269;-56
2023/02/05 04:23:12;;;;;;;10.10;2.50;;;;;;;-2.66;84.82;102311.20;106505;1265;22698;-59
2023/02/05 04:25:42;;;;;;;11.10;2.90;;;;;;;-2.68;84.82;102314.63;106666;1262;23033;-60
2023/02/05 04:28:13;;;;;;;16.80;2.80;;;;;;;-2.71;84.82;102319.23;106522;1268;25464;-59
2023/02/05 04:30:45;;;;;;;15.10;3.50;;;;;;;-2.72;84.96;102320.27;106482;1275;24354;-58
2023/02/05 04:33:15;;;;;;;11.50;2.60;;;;;;;-2.76;84.94;102323.91;106498;1253;24280;-56
2023/02/05 04:35:47;;;;;;;15.20;3.40;;;;;;;-2.79;84.67;102329.17;106487;1265;24216;-59
2023/02/05 04:38:17;;;;;;;13.50;2.40;;;;;;;-2.84;84.54;102340.79;106541;1274;22576;-57
2023/02/05 04:40:49;;;;;;;14.10;3.20;;;;;;;-2.90;84.64;102345.04;106521;1274;23030;-58
2023/02/05 04:43:20;;;;;;;9.10;2.10;;;;;;;-2.95;84.61;102342.83;106526;1260;24273;-56
2023/02/05 04:45:50;;;;;;;11.50;3.00;;;;;;;-3.02;84.48;102342.67;106504;1275;22680;-57
2023/02/05 04:48:22;;;;;;;11.60;2.60;;;;;;;-3.08;84.51;102340.10;106498;1260;25548;-58
2023/02/05 04:50:52;;;;;;;12.40;2.90;;;;;;;-3.12;84.51;102339.95;106469;1274;25498;-58
2023/02/05 04:53:23;;;;;;;13.60;2.50;;;;;;;-3.14;84.74;102340.27;106460;1262;22619;-59
2023/02/05 04:56:03;;;;;;;13.00;3.60;;;;;;;-3.15;84.79;102339.84;106445;1267;22698;-58
2023/02/05 04:58:34;;;;;;;14.40;3.20;;;;;;;-3.17;84.80;102345.00;106450;1274;24273;-58
2023/02/05 05:01:10;;;;;;;12.90;3.40;;;;;;;-3.22;84.90;102345.21;106469;1274;22558;-58
2023/02/05 05:03:42;;;;;;;15.10;3.10;;;;;;;-3.26;84.98;102353.24;106536;1267;22557;-56
2023/02/05 05:06:14;;;;;;;9.20;2.20;;;;;;;-3.34;85.21;102353.89;106552;1274;23050;-58
2023/02/05 05:08:45;;;;;;;13.50;2.40;;;;;;;-3.42;85.38;102360.30;106513;1275;24270;-58
2023/02/05 05:11:18;;;;;;;16.30;3.20;;;;;;;-3.49;85.38;102361.77;106630;1275;24283;-58
2023/02/05 05:13:50;;;;;;;15.80;3.80;;;;;;;-3.54;85.50;102364.29;106488;1269;24229;-57
2023/02/05 05:16:21;;;;;;;11.70;3.50;;;;;;;-3.59;85.64;102366.29;106585;1274;23202;-58
2023/02/05 05:18:54;;;;;;;17.70;4.20;;;;;;;-3.62;85.58;102374.89;106469;1274;22748;-58
2023/02/05 05:21:25;;;;;;;14.90;3.50;;;;;;;-3.62;85.71;102373.41;106456;1268;22562;-59
2023/02/05 05:23:56;;;;;;;14.60;3.70;;;;;;;-3.61;85.69;102379.16;106440;1276;22678;-58
2023/02/05 05:26:27;;;;;;;12.90;3.20;;;;;;;-3.58;85.59;102382.30;106442;1276;25669;-58
2023/02/05 05:28:58;;;;;;;13.40;5.00;;;;;;;-3.56;85.64;102381.06;106403;1274;22640;-59
2023/02/05 05:31:29;;;;;;;14.00;4.20;;;;;;;-3.54;85.54;102379.27;106520;1262;22565;-58
2023/02/05 05:34:00;;;;;;;13.20;3.20;;;;;;;-3.52;85.41;102387.45;106462;1276;22665;-56
2023/02/05 05:36:31;;;;;;;13.60;3.20;;;;;;;-3.52;85.25;102389.56;106730;1271;24246;-58
2023/02/05 05:44:35;;;;;;;16.30;3.60;;;;;;;-3.54;85.00;102406.83;106385;1273;22579;-57
2023/02/05 05:47:06;;;;;;;14.80;4.00;;;;;;;-3.57;85.06;102403.63;106435;1268;24216;-55
2023/02/05 05:49:38;;;;;;;20.40;4.30;;;;;;;-3.63;85.00;102403.02;106442;1270;25474;-57
2023/02/05 05:52:08;;;;;;;16.30;3.70;;;;;;;-3.67;84.81;102403.73;106535;1268;22604;-58
2023/02/05 05:54:39;;;;;;;17.50;3.80;;;;;;;-3.71;84.79;102407.46;106478;1268;22600;-58
2023/02/05 05:57:10;;;;;;;17.80;4.40;;;;;;;-3.75;84.91;102410.84;106482;1276;22577;-58
2023/02/05 05:59:41;;;;;;;12.60;3.80;;;;;;;-3.78;84.92;102406.39;106423;1276;22700;-59
2023/02/05 06:02:12;;;;;;;14.90;4.40;;;;;;;-3.82;85.02;102407.73;106586;1257;25058;-60
2023/02/05 06:04:43;;;;;;;16.10;4.00;;;;;;;-3.81;85.08;102407.05;106443;1273;22583;-60
2023/02/05 06:07:14;;;;;;;16.20;4.00;;;;;;;-3.81;85.01;102405.64;106448;1269;24702;-60
2023/02/05 06:09:45;;;;;;;13.20;3.20;;;;;;;-3.84;84.80;102405.39;106475;1269;22616;-60
2023/02/05 06:12:16;;;;;;;17.40;4.50;;;;;;;-3.87;84.93;102403.06;106570;1261;26654;-56
2023/02/05 06:14:47;;;;;;;18.20;4.20;;;;;;;-3.89;84.90;102403.71;106491;1268;22577;-59
2023/02/05 06:17:18;;;;;;;13.70;3.80;;;;;;;-3.89;84.86;102404.55;106438;1269;22557;-60
2023/02/05 06:19:49;;;;;;;15.30;3.70;;;;;;;-3.90;84.72;102408.09;106428;1270;22594;-60
2023/02/05 06:22:20;;;;;;;16.80;4.00;;;;;;;-3.91;84.53;102409.99;106617;1268;26180;-59
2023/02/05 06:24:51;;;;;;;18.50;5.90;;;;;;;-3.93;84.53;102418.52;106493;1276;24490;-58
2023/02/05 06:27:22;;;;;;;16.40;3.80;;;;;;;-3.93;84.47;102425.67;106458;1253;24246;-59
2023/02/05 06:29:53;;;;;;;14.80;3.90;;;;;;;-3.95;84.44;102429.80;106435;1274;25714;-57
2023/02/05 06:32:24;;;;;;;19.30;4.20;;;;;;;-3.96;84.48;102433.73;106417;1276;23021;-59
2023/02/05 06:34:55;;;;;;;18.30;5.00;;;;;;;-3.97;84.59;102427.70;106468;1276;22681;-61
2023/02/05 06:37:28;;;;;;;19.40;5.10;;;;;;;-3.95;84.58;102430.49;106645;1269;25611;-58
2023/02/05 06:40:00;;;;;;;18.70;5.00;;;;;;;-3.96;84.36;102434.29;106576;1276;23145;-60
2023/02/05 06:42:32;;;;;;;19.50;5.00;;;;;;;-3.97;84.34;102437.27;106658;1272;24319;-59
2023/02/05 06:45:04;;;;;;;17.40;4.30;;;;;;;-3.98;84.17;102440.04;106817;1268;22628;-59
2023/02/05 06:47:34;;;;;;;16.00;5.40;;;;;;;-4.00;83.84;102437.61;106511;1264;22859;-59
2023/02/05 06:50:07;;;;;;;21.00;6.10;;;;;;;-4.06;83.80;102444.84;106387;1268;24257;-59
2023/02/05 06:52:38;;;;;;;25.20;6.70;;;;;;;-4.12;83.98;102445.64;106590;1274;22588;-56
2023/02/05 06:55:10;;;;;;;28.40;9.60;;;;;;;-4.16;84.09;102445.17;106371;1262;24253;-58
2023/02/05 06:57:41;;;;;;;32.40;9.60;;;;;;;-4.18;84.25;102448.33;106516;1276;25481;-59
2023/02/05 07:00:15;;;;;;;43.20;11.10;;;;;;;-4.21;84.37;102455.38;106419;1276;25071;-59
2023/02/05 07:02:46;;;;;;;44.90;11.90;;;;;;;-4.24;84.35;102454.24;106642;1276;22798;-58
2023/02/05 07:05:17;;;;;;;40.10;11.10;;;;;;;-4.28;84.62;102455.33;106567;1270;24199;-58
2023/02/05 07:07:48;;;;;;;33.10;11.20;;;;;;;-4.31;84.91;102468.67;106496;1276;22580;-59
2023/02/05 07:10:20;;;;;;;29.40;9.50;;;;;;;-4.35;85.28;102476.58;106413;1257;24379;-59
2023/02/05 07:12:50;;;;;;;27.30;6.50;;;;;;;-4.39;85.63;102484.92;106556;1275;25622;-58
2023/02/05 07:15:21;;;;;;;29.00;8.90;;;;;;;-4.41;85.86;102485.77;106422;1276;25545;-57
2023/02/05 07:17:53;;;;;;;29.80;9.40;;;;;;;-4.41;85.87;102489.27;106205;1257;25287;-58
2023/02/05 07:20:24;;;;;;;29.60;8.50;;;;;;;-4.40;85.95;102488.40;106467;1276;25481;-58
2023/02/05 07:22:54;;;;;;;26.90;7.70;;;;;;;-4.39;86.25;102495.28;106468;1268;22588;-59
2023/02/05 07:25:25;;;;;;;22.50;6.70;;;;;;;-4.38;86.47;102502.66;106415;1273;22596;-59
2023/02/05 07:27:56;;;;;;;21.60;7.10;;;;;;;-4.35;86.89;102513.05;106622;1269;24863;-58
2023/02/05 07:30:27;;;;;;;20.90;6.70;;;;;;;-4.35;87.11;102509.26;106786;1269;24380;-59
2023/02/05 07:32:59;;;;;;;18.60;5.60;;;;;;;-4.32;87.29;102509.30;106533;1268;22662;-60
2023/02/05 07:35:31;;;;;;;19.00;5.50;;;;;;;-4.29;87.53;102509.73;106580;1275;22629;-59
2023/02/05 07:38:01;;;;;;;19.30;5.00;;;;;;;-4.26;87.75;102505.89;106528;1275;22609;-59
2023/02/05 07:40:33;;;;;;;16.10;4.60;;;;;;;-4.23;88.00;102501.52;106465;1269;22591;-61
2023/02/05 07:43:03;;;;;;;22.50;5.40;;;;;;;-4.19;88.27;102502.38;106561;1275;24212;-59
2023/02/05 07:45:34;;;;;;;20.20;5.00;;;;;;;-4.15;88.27;102501.69;106497;1275;23210;-59
2023/02/05 07:48:06;;;;;;;16.90;4.10;;;;;;;-4.11;88.73;102502.41;106410;1263;23271;-61
2023/02/05 07:50:37;;;;;;;14.90;4.20;;;;;;;-4.07;88.67;102505.70;106559;1274;24210;-60
2023/02/05 07:53:07;;;;;;;19.90;4.40;;;;;;;-4.03;88.66;102506.17;106542;1261;22610;-61
2023/02/05 07:55:41;;;;;;;13.80;3.70;;;;;;;-3.99;88.89;102510.01;106682;1272;24524;-59
2023/02/05 07:58:12;;;;;;;21.10;4.90;;;;;;;-3.96;88.92;102511.64;106561;1274;24432;-59
2023/02/05 08:00:43;;;;;;;20.30;3.90;;;;;;;-3.92;88.61;102510.82;107232;1275;22590;-59
2023/02/05 08:03:15;;;;;;;15.20;4.30;;;;;;;-3.90;88.57;102515.20;106517;1275;26577;-59
2023/02/05 08:05:45;;;;;;;17.80;3.20;;;;;;;-3.87;88.49;102515.10;106655;1272;22585;-60
2023/02/05 08:08:16;;;;;;;16.10;3.30;;;;;;;-3.83;88.72;102518.09;106474;1269;22674;-60
2023/02/05 08:10:47;;;;;;;19.40;4.40;;;;;;;-3.79;88.60;102517.39;106526;1275;26824;-61
2023/02/05 08:13:18;;;;;;;13.70;3.40;;;;;;;-3.75;88.60;102518.42;106601;1273;22577;-59
2023/02/05 08:15:49;;;;;;;15.10;4.20;;;;;;;-3.70;88.54;102518.31;106541;1265;22689;-60
2023/02/05 08:18:20;;;;;;;14.20;3.50;;;;;;;-3.65;88.35;102519.84;106459;1269;22555;-58
2023/02/05 08:20:54;;;;;;;17.30;5.10;;;;;;;-3.61;88.48;102521.65;106522;1275;22608;-59
2023/02/05 08:23:26;;;;;;;21.20;5.70;;;;;;;-3.58;88.14;102523.75;106723;1270;23172;-60
2023/02/05 08:25:59;;;;;;;21.70;5.20;;;;;;;-3.55;88.08;102515.84;106567;1266;23186;-59
2023/02/05 08:28:30;;;;;;;20.90;5.50;;;;;;;-3.50;88.02;102517.58;106408;1274;22639;-59
2023/02/05 08:31:01;;;;;;;19.20;5.60;;;;;;;-3.46;87.97;102512.52;106475;1276;26954;-63
2023/02/05 08:33:32;;;;;;;20.80;5.80;;;;;;;-3.41;87.86;102519.11;106476;1267;22646;-59
2023/02/05 08:36:07;;;;;;;19.80;5.60;;;;;;;-3.37;87.70;102518.05;106613;1273;26743;-56
2023/02/05 08:38:38;;;;;;;43.30;14.80;;;;;;;-3.31;87.65;102524.36;106804;1261;24268;-59
2023/02/05 08:41:12;;;;;;;25.90;7.70;;;;;;;-3.25;87.67;102520.91;106484;1260;22563;-58
2023/02/05 08:43:44;;;;;;;20.00;5.40;;;;;;;-3.20;87.74;102520.73;106448;1275;25607;-58
2023/02/05 08:46:18;;;;;;;15.60;5.10;;;;;;;-3.15;87.70;102523.03;106508;1261;22751;-58
2023/02/05 08:48:49;;;;;;;20.50;6.10;;;;;;;-3.11;87.55;102524.37;107015;1276;22559;-58
2023/02/05 08:51:22;;;;;;;20.70;6.10;;;;;;;-3.05;87.51;102523.98;106360;1271;22647;-60
2023/02/05 08:53:55;;;;;;;18.80;5.90;;;;;;;-2.99;87.72;102523.03;106443;1261;22615;-61
2023/02/05 08:56:26;;;;;;;21.50;5.40;;;;;;;-2.94;87.65;102525.89;106449;1268;22667;-58
2023/02/05 08:58:57;;;;;;;22.80;6.40;;;;;;;-2.89;87.22;102530.69;106408;1273;22555;-58
2023/02/05 09:01:28;;;;;;;17.30;6.50;;;;;;;-2.85;87.24;102531.55;106430;1266;23056;-59
2023/02/05 09:03:59;;;;;;;21.60;5.90;;;;;;;-2.79;87.34;102528.35;106516;1276;22691;-57
2023/02/05 09:06:30;;;;;;;22.30;7.40;;;;;;;-2.72;87.33;102528.14;106599;1270;24286;-58
2023/02/05 09:09:01;;;;;;;18.90;5.80;;;;;;;-2.66;87.36;102525.33;106543;1261;25510;-59
2023/02/05 09:11:32;;;;;;;20.40;6.50;;;;;;;-2.62;86.84;102519.69;106486;1275;22611;-58
2023/02/05 09:14:05;;;;;;;20.10;5.70;;;;;;;-2.59;86.82;102517.98;106513;1270;24335;-58
2023/02/05 09:16:36;;;;;;;21.00;6.10;;;;;;;-2.55;86.84;102509.79;106815;1254;26796;-59
2023/02/05 09:19:08;;;;;;;21.50;5.80;;;;;;;-2.51;86.73;102510.19;106459;1275;22587;-57
2023/02/05 09:21:39;;;;;;;13.30;4.70;;;;;;;-2.47;86.67;102504.70;106541;1276;26524;-58
2023/02/05 09:24:09;;;;;;;18.00;6.20;;;;;;;-2.43;86.55;102507.49;106479;1274;27134;-58
2023/02/05 09:26:41;;;;;;;19.00;5.30;;;;;;;-2.40;86.38;102501.25;106468;1275;25502;-56
2023/02/05 09:29:12;;;;;;;18.30;6.70;;;;;;;-2.38;86.50;102499.07;106461;1268;24151;-58
2023/02/05 09:31:43;;;;;;;16.90;5.30;;;;;;;-2.35;86.32;102499.01;106594;1260;25568;-58
2023/02/05 09:34:14;;;;;;;22.70;6.90;;;;;;;-2.32;86.30;102496.30;106741;1261;22563;-58
2023/02/05 09:36:45;;;;;;;19.40;5.40;;;;;;;-2.28;86.31;102493.08;106566;1276;22721;-57
2023/02/05 09:39:17;;;;;;;30.10;8.80;;;;;;;-2.23;86.49;102494.76;106492;1261;22547;-58
2023/02/05 09:41:56;;;;;;;30.00;8.70;;;;;;;-2.18;86.35;102495.65;106567;1263;22684;-58
2023/02/05 09:44:43;;;;;;;31.70;8.00;;;;;;;-2.12;86.06;102497.73;106594;1272;24268;-58
2023/02/05 09:47:23;;;;;;;19.10;5.70;;;;;;;-2.06;85.64;102498.31;106665;1275;26359;-57
2023/02/05 09:50:02;;;;;;;15.80;3.60;;;;;;;-2.02;85.16;102493.20;106764;1273;25265;-60
2023/02/05 09:52:38;;;;;;;19.10;5.50;;;;;;;-1.98;85.18;102488.73;106545;1275;23169;-60
2023/02/05 09:55:20;;;;;;;12.30;2.30;;;;;;;-1.93;85.24;102490.46;106481;1260;22699;-59
2023/02/05 09:57:54;;;;;;;14.50;2.40;;;;;;;-1.89;84.27;102488.55;106538;1270;24475;-58
2023/02/05 10:00:30;;;;;;;9.80;2.30;;;;;;;-1.88;84.22;102493.60;106455;1273;22771;-59
2023/02/05 10:03:10;;;;;;;14.00;3.40;;;;;;;-1.86;84.68;102500.28;106542;1275;25515;-59
2023/02/05 10:06:03;;;;;;;11.80;2.60;;;;;;;-1.81;84.80;102503.48;106515;1267;22591;-59
2023/02/05 10:08:41;;;;;;;8.90;1.90;;;;;;;-1.75;83.23;102501.16;106403;1274;22759;-59
2023/02/05 10:11:21;;;;;;;12.70;2.50;;;;;;;-1.69;83.92;102494.39;106624;1271;22587;-58
2023/02/05 10:14:00;;;;;;;;;;;;;;;-1.64;83.78;102486.76;106608;1264;22512;-58
2023/02/05 10:16:50;;;;;;;15.60;2.60;;;;;;;-1.59;83.09;102483.05;106488;1261;22568;-58
2023/02/05 10:19:51;;;;;;;12.60;2.20;;;;;;;-1.56;82.76;102477.20;106415;1261;22684;-57
2023/02/05 10:22:26;;;;;;;;;;;;;;;-1.54;80.91;102477.51;106086;1267;22524;-58
2023/02/05 10:25:19;;;;;;;5.80;1.10;;;;;;;-1.54;81.56;102474.70;106152;1278;24084;-57
2023/02/05 10:27:58;;;;;;;4.80;0.90;;;;;;;-1.54;80.66;102472.13;106035;1264;26738;-58
2023/02/05 10:30:36;;;;;;;5.90;2.00;;;;;;;-1.52;80.48;102469.26;108860;1275;24278;-59
2023/02/05 10:33:15;;;;;;;8.00;1.10;;;;;;;-1.52;80.48;102468.42;105977;1264;22571;-58
2023/02/05 10:35:56;;;;;;;7.60;1.20;;;;;;;-1.51;79.82;102468.67;107789;1273;24297;-58
2023/02/05 10:38:31;;;;;;;4.00;0.70;;;;;;;-1.50;80.20;102468.16;106146;1269;23415;-58
2023/02/05 10:41:12;;;;;;;8.10;1.60;;;;;;;-1.49;80.21;102471.11;106200;1269;25523;-58
2023/02/05 10:43:48;;;;;;;9.60;1.70;;;;;;;-1.48;79.49;102471.79;106182;1273;22687;-58
2023/02/05 10:46:19;;;;;;;9.70;1.50;;;;;;;-1.47;79.45;102471.48;106282;1274;24256;-57
2023/02/05 10:48:57;;;;;;;7.40;1.20;;;;;;;-1.47;79.33;102467.34;106048;1270;22540;-57
2023/02/05 10:51:33;;;;;;;7.70;1.40;;;;;;;-1.46;79.84;102469.24;105960;1267;23032;-57
2023/02/05 10:54:05;;;;;;;9.50;1.50;;;;;;;-1.43;80.38;102468.88;106070;1274;22542;-57
2023/02/05 10:56:36;;;;;;;11.40;2.00;;;;;;;-1.40;79.06;102471.41;106089;1270;28016;-65
2023/02/05 10:59:07;;;;;;;2.90;0.70;;;;;;;-1.38;78.99;102473.01;105819;1276;22743;-59
2023/02/05 11:01:40;;;;;;;2.80;0.70;;;;;;;-1.35;78.86;102466.28;106289;1269;22530;-60
2023/02/05 11:04:16;;;;;;;6.70;0.80;;;;;;;-1.34;78.34;102464.91;106379;1276;22610;-58
2023/02/05 11:06:50;;;;;;;3.90;0.80;;;;;;;-1.33;78.26;102459.33;106499;1264;22595;-57
2023/02/05 11:09:33;;;;;;;7.30;0.90;;;;;;;-1.31;78.59;102455.70;106459;1270;26692;-56
2023/02/05 11:12:14;;;;;;;31.90;7.40;;;;;;;-1.25;79.11;102447.89;106432;1268;22546;-55
2023/02/05 11:14:55;;;;;;;6.20;1.20;;;;;;;-1.21;78.36;102445.05;106586;1272;22584;-57
2023/02/05 11:17:30;;;;;;;9.10;1.00;;;;;;;-1.24;77.35;102445.52;106530;1273;24278;-58
2023/02/05 11:20:04;;;;;;;5.60;1.00;;;;;;;-1.24;77.89;102448.48;106258;1269;25447;-58
2023/02/05 11:22:38;;;;;;;7.10;1.10;;;;;;;-1.23;77.62;102455.11;107325;1269;22551;-61
2023/02/05 11:25:17;;;;;;;5.00;1.00;;;;;;;-1.22;77.58;102456.28;106425;1270;22657;-60
2023/02/05 11:27:56;;;;;;;6.90;1.00;;;;;;;-1.21;77.93;102460.48;107041;1267;22947;-58
2023/02/05 11:30:31;;;;;;;5.90;1.50;;;;;;;-1.16;78.31;102460.06;106306;1260;22634;-62
2023/02/05 11:33:19;;;;;;;10.40;2.20;;;;;;;-1.11;77.93;102459.67;106915;1268;25380;-69
2023/02/05 11:35:56;;;;;;;7.00;1.80;;;;;;;-1.09;77.88;102461.30;106453;1261;22550;-57
2023/02/05 11:38:41;;;;;;;13.60;2.60;;;;;;;-1.05;78.13;102461.44;106629;1260;22557;-58
2023/02/05 11:41:25;;;;;;;6.10;1.40;;;;;;;-0.99;78.58;102463.25;106384;1260;24259;-56
2023/02/05 11:44:00;;;;;;;8.20;1.40;;;;;;;-0.92;78.25;102459.52;106451;1260;24374;-59
2023/02/05 11:46:35;;;;;;;7.50;1.50;;;;;;;-0.90;78.43;102457.52;106523;1260;22569;-57